sensor_id;sensor_type;location;lat;lon;timestamp;temperature;humidity
41928;DHT22;27616;51.420;6.788;2023-07-13T00:01:31;17.80;98.90
41928;DHT22;27616;51.420;6.788;2023-07-13T00:03:57;17.70;99.50
41928;DHT22;27616;51.420;6.788;2023-07-13T00:06:23;17.70;99.40
41928;DHT22;27616;51.420;6.788;2023-07-13T00:08:49;17.70;99.10
41928;DHT22;27616;51.420;6.788;2023-07-13T00:11:16;17.70;99.10
41928;DHT22;27616;51.420;6.788;2023-07-13T00:13:42;17.70;99.20
41928;DHT22;27616;51.420;6.788;2023-07-13T00:16:10;17.70;99.10
41928;DHT22;27616;51.420;6.788;2023-07-13T00:18:36;17.70;99.10
41928;DHT22;27616;51.420;6.788;2023-07-13T00:21:03;17.70;99.20
41928;DHT22;27616;51.420;6.788;2023-07-13T00:23:36;17.80;99.20
41928;DHT22;27616;51.420;6.788;2023-07-13T00:26:04;17.80;99.10
41928;DHT22;27616;51.420;6.788;2023-07-13T00:28:29;17.80;99.00
41928;DHT22;27616;51.420;6.788;2023-07-13T00:30:55;17.80;98.90
41928;DHT22;27616;51.420;6.788;2023-07-13T00:33:21;17.90;98.90
41928;DHT22;27616;51.420;6.788;2023-07-13T00:35:48;17.80;99.00
41928;DHT22;27616;51.420;6.788;2023-07-13T00:38:15;17.80;99.00
41928;DHT22;27616;51.420;6.788;2023-07-13T00:40:40;17.70;99.20
41928;DHT22;27616;51.420;6.788;2023-07-13T00:43:19;17.70;99.40
41928;DHT22;27616;51.420;6.788;2023-07-13T00:48:12;17.60;99.50
41928;DHT22;27616;51.420;6.788;2023-07-13T00:50:39;17.60;99.70
41928;DHT22;27616;51.420;6.788;2023-07-13T00:53:05;17.60;99.70
41928;DHT22;27616;51.420;6.788;2023-07-13T00:55:31;17.50;99.90
41928;DHT22;27616;51.420;6.788;2023-07-13T00:57:57;17.50;99.90
41928;DHT22;27616;51.420;6.788;2023-07-13T01:00:25;17.50;99.90
41928;DHT22;27616;51.420;6.788;2023-07-13T01:02:51;17.50;99.90
41928;DHT22;27616;51.420;6.788;2023-07-13T01:05:19;17.50;99.90
41928;DHT22;27616;51.420;6.788;2023-07-13T01:07:47;17.50;99.90
41928;DHT22;27616;51.420;6.788;2023-07-13T01:10:13;17.50;99.90
41928;DHT22;27616;51.420;6.788;2023-07-13T01:12:39;17.40;99.90
41928;DHT22;27616;51.420;6.788;2023-07-13T01:15:32;17.40;99.90
41928;DHT22;27616;51.420;6.788;2023-07-13T01:17:51;17.30;99.90
41928;DHT22;27616;51.420;6.788;2023-07-13T01:20:17;17.20;99.90
41928;DHT22;27616;51.420;6.788;2023-07-13T01:22:42;17.20;99.90
41928;DHT22;27616;51.420;6.788;2023-07-13T01:25:08;17.10;99.90
41928;DHT22;27616;51.420;6.788;2023-07-13T01:27:34;17.10;99.90
41928;DHT22;27616;51.420;6.788;2023-07-13T01:29:59;17.10;99.90
41928;DHT22;27616;51.420;6.788;2023-07-13T01:32:29;17.00;99.90
41928;DHT22;27616;51.420;6.788;2023-07-13T01:34:56;17.00;99.90
41928;DHT22;27616;51.420;6.788;2023-07-13T01:37:26;17.00;99.90
41928;DHT22;27616;51.420;6.788;2023-07-13T01:39:52;17.00;99.90
41928;DHT22;27616;51.420;6.788;2023-07-13T01:42:18;17.00;99.90
41928;DHT22;27616;51.420;6.788;2023-07-13T01:44:44;17.00;99.90
41928;DHT22;27616;51.420;6.788;2023-07-13T01:47:10;17.00;99.90
41928;DHT22;27616;51.420;6.788;2023-07-13T01:49:36;17.00;99.90
41928;DHT22;27616;51.420;6.788;2023-07-13T01:52:03;17.00;99.90
41928;DHT22;27616;51.420;6.788;2023-07-13T01:54:30;17.00;99.90
41928;DHT22;27616;51.420;6.788;2023-07-13T01:56:56;17.00;99.90
41928;DHT22;27616;51.420;6.788;2023-07-13T01:59:22;17.00;99.90
41928;DHT22;27616;51.420;6.788;2023-07-13T02:01:47;17.00;99.90
41928;DHT22;27616;51.420;6.788;2023-07-13T02:04:13;17.00;99.90
41928;DHT22;27616;51.420;6.788;2023-07-13T02:06:39;16.90;99.90
41928;DHT22;27616;51.420;6.788;2023-07-13T02:09:04;16.90;99.90
41928;DHT22;27616;51.420;6.788;2023-07-13T02:11:30;16.80;99.90
41928;DHT22;27616;51.420;6.788;2023-07-13T02:14:02;16.80;99.90
41928;DHT22;27616;51.420;6.788;2023-07-13T02:16:31;16.80;99.90
41928;DHT22;27616;51.420;6.788;2023-07-13T02:18:57;16.70;99.90
41928;DHT22;27616;51.420;6.788;2023-07-13T02:21:23;16.70;99.90
41928;DHT22;27616;51.420;6.788;2023-07-13T02:23:51;16.60;99.90
41928;DHT22;27616;51.420;6.788;2023-07-13T02:26:17;16.60;99.90
41928;DHT22;27616;51.420;6.788;2023-07-13T02:28:43;16.60;99.90
41928;DHT22;27616;51.420;6.788;2023-07-13T02:31:11;16.50;99.90
41928;DHT22;27616;51.420;6.788;2023-07-13T02:33:38;16.40;99.90
41928;DHT22;27616;51.420;6.788;2023-07-13T02:36:03;16.30;99.90
41928;DHT22;27616;51.420;6.788;2023-07-13T02:38:32;16.30;99.90
41928;DHT22;27616;51.420;6.788;2023-07-13T02:41:00;16.30;99.90
41928;DHT22;27616;51.420;6.788;2023-07-13T02:43:27;16.30;99.90
41928;DHT22;27616;51.420;6.788;2023-07-13T02:45:52;16.30;99.90
41928;DHT22;27616;51.420;6.788;2023-07-13T02:48:18;16.30;99.90
41928;DHT22;27616;51.420;6.788;2023-07-13T02:50:44;16.30;99.90
41928;DHT22;27616;51.420;6.788;2023-07-13T02:53:10;16.30;99.90
41928;DHT22;27616;51.420;6.788;2023-07-13T02:55:36;16.30;99.90
41928;DHT22;27616;51.420;6.788;2023-07-13T02:58:02;16.20;99.90
41928;DHT22;27616;51.420;6.788;2023-07-13T03:00:27;16.20;99.90
41928;DHT22;27616;51.420;6.788;2023-07-13T03:02:54;16.20;99.90
41928;DHT22;27616;51.420;6.788;2023-07-13T03:05:23;16.20;99.90
41928;DHT22;27616;51.420;6.788;2023-07-13T03:07:49;16.10;99.90
41928;DHT22;27616;51.420;6.788;2023-07-13T03:10:15;16.10;99.90
41928;DHT22;27616;51.420;6.788;2023-07-13T03:12:46;16.10;99.90
41928;DHT22;27616;51.420;6.788;2023-07-13T03:15:20;16.10;99.90
41928;DHT22;27616;51.420;6.788;2023-07-13T03:17:47;16.10;99.90
41928;DHT22;27616;51.420;6.788;2023-07-13T03:20:13;16.10;99.90
41928;DHT22;27616;51.420;6.788;2023-07-13T03:22:39;16.10;99.90
41928;DHT22;27616;51.420;6.788;2023-07-13T03:25:05;16.00;99.90
41928;DHT22;27616;51.420;6.788;2023-07-13T03:27:30;15.90;99.90
41928;DHT22;27616;51.420;6.788;2023-07-13T03:29:56;15.90;99.90
41928;DHT22;27616;51.420;6.788;2023-07-13T03:32:22;15.80;99.90
41928;DHT22;27616;51.420;6.788;2023-07-13T03:34:48;15.80;99.90
41928;DHT22;27616;51.420;6.788;2023-07-13T03:37:13;15.70;99.90
41928;DHT22;27616;51.420;6.788;2023-07-13T03:39:40;15.70;99.90
41928;DHT22;27616;51.420;6.788;2023-07-13T03:42:06;15.70;99.90
41928;DHT22;27616;51.420;6.788;2023-07-13T03:44:32;15.70;99.90
41928;DHT22;27616;51.420;6.788;2023-07-13T03:46:58;15.70;99.90
41928;DHT22;27616;51.420;6.788;2023-07-13T03:49:23;15.70;99.90
41928;DHT22;27616;51.420;6.788;2023-07-13T03:51:49;15.70;99.90
41928;DHT22;27616;51.420;6.788;2023-07-13T03:54:15;15.70;99.90
41928;DHT22;27616;51.420;6.788;2023-07-13T03:56:41;15.70;99.90
41928;DHT22;27616;51.420;6.788;2023-07-13T03:59:08;15.80;99.90
41928;DHT22;27616;51.420;6.788;2023-07-13T04:01:34;15.80;99.90
41928;DHT22;27616;51.420;6.788;2023-07-13T04:04:00;15.80;99.90
41928;DHT22;27616;51.420;6.788;2023-07-13T04:06:28;15.80;99.90
41928;DHT22;27616;51.420;6.788;2023-07-13T04:08:57;15.90;99.90
41928;DHT22;27616;51.420;6.788;2023-07-13T04:11:25;15.80;99.90
41928;DHT22;27616;51.420;6.788;2023-07-13T04:13:51;16.00;99.90
41928;DHT22;27616;51.420;6.788;2023-07-13T04:16:18;16.00;99.90
41928;DHT22;27616;51.420;6.788;2023-07-13T04:18:45;16.00;99.90
41928;DHT22;27616;51.420;6.788;2023-07-13T04:21:12;16.00;99.90
41928;DHT22;27616;51.420;6.788;2023-07-13T04:23:38;16.00;99.90
41928;DHT22;27616;51.420;6.788;2023-07-13T04:26:04;16.10;99.90
41928;DHT22;27616;51.420;6.788;2023-07-13T04:28:30;16.10;99.90
41928;DHT22;27616;51.420;6.788;2023-07-13T04:30:56;16.00;99.90
41928;DHT22;27616;51.420;6.788;2023-07-13T04:33:22;16.10;99.90
41928;DHT22;27616;51.420;6.788;2023-07-13T04:35:49;16.00;99.90
41928;DHT22;27616;51.420;6.788;2023-07-13T04:38:15;16.00;99.90
41928;DHT22;27616;51.420;6.788;2023-07-13T04:40:45;16.00;99.90
41928;DHT22;27616;51.420;6.788;2023-07-13T04:43:10;16.00;99.90
41928;DHT22;27616;51.420;6.788;2023-07-13T04:45:36;16.00;99.90
41928;DHT22;27616;51.420;6.788;2023-07-13T04:48:02;16.10;99.90
41928;DHT22;27616;51.420;6.788;2023-07-13T04:50:28;16.10;99.90
41928;DHT22;27616;51.420;6.788;2023-07-13T04:52:53;16.00;99.90
41928;DHT22;27616;51.420;6.788;2023-07-13T04:55:19;16.10;99.90
41928;DHT22;27616;51.420;6.788;2023-07-13T04:57:45;16.10;99.90
41928;DHT22;27616;51.420;6.788;2023-07-13T05:00:12;16.00;99.90
41928;DHT22;27616;51.420;6.788;2023-07-13T05:02:39;16.10;99.90
41928;DHT22;27616;51.420;6.788;2023-07-13T05:05:05;16.10;99.90
41928;DHT22;27616;51.420;6.788;2023-07-13T05:07:31;16.20;99.90
41928;DHT22;27616;51.420;6.788;2023-07-13T05:09:59;16.20;99.90
41928;DHT22;27616;51.420;6.788;2023-07-13T05:12:25;16.30;99.90
41928;DHT22;27616;51.420;6.788;2023-07-13T05:14:51;16.30;99.90
41928;DHT22;27616;51.420;6.788;2023-07-13T05:17:17;16.40;99.90
41928;DHT22;27616;51.420;6.788;2023-07-13T05:19:42;16.40;99.90
41928;DHT22;27616;51.420;6.788;2023-07-13T05:22:08;16.40;99.90
41928;DHT22;27616;51.420;6.788;2023-07-13T05:24:34;16.40;99.90
41928;DHT22;27616;51.420;6.788;2023-07-13T05:26:59;16.40;99.90
41928;DHT22;27616;51.420;6.788;2023-07-13T05:29:25;16.40;99.90
41928;DHT22;27616;51.420;6.788;2023-07-13T05:31:51;16.40;99.90
41928;DHT22;27616;51.420;6.788;2023-07-13T05:34:17;16.50;99.90
41928;DHT22;27616;51.420;6.788;2023-07-13T05:36:43;16.50;99.90
41928;DHT22;27616;51.420;6.788;2023-07-13T05:39:08;16.70;99.90
41928;DHT22;27616;51.420;6.788;2023-07-13T05:41:35;16.60;99.90
41928;DHT22;27616;51.420;6.788;2023-07-13T05:44:00;16.60;99.90
41928;DHT22;27616;51.420;6.788;2023-07-13T05:46:26;16.60;99.90
41928;DHT22;27616;51.420;6.788;2023-07-13T05:48:51;16.60;99.90
41928;DHT22;27616;51.420;6.788;2023-07-13T05:51:17;16.60;99.90
41928;DHT22;27616;51.420;6.788;2023-07-13T05:53:43;16.60;99.90
41928;DHT22;27616;51.420;6.788;2023-07-13T05:56:08;16.60;99.90
41928;DHT22;27616;51.420;6.788;2023-07-13T05:58:34;16.70;99.90
41928;DHT22;27616;51.420;6.788;2023-07-13T06:01:05;16.80;99.90
41928;DHT22;27616;51.420;6.788;2023-07-13T06:03:31;16.70;99.90
41928;DHT22;27616;51.420;6.788;2023-07-13T06:05:58;16.70;99.90
41928;DHT22;27616;51.420;6.788;2023-07-13T06:08:26;16.70;99.90
41928;DHT22;27616;51.420;6.788;2023-07-13T06:10:51;16.70;99.90
41928;DHT22;27616;51.420;6.788;2023-07-13T06:13:17;16.80;99.90
41928;DHT22;27616;51.420;6.788;2023-07-13T06:15:51;16.80;99.90
41928;DHT22;27616;51.420;6.788;2023-07-13T06:18:16;16.90;99.90
41928;DHT22;27616;51.420;6.788;2023-07-13T06:20:42;17.00;99.90
41928;DHT22;27616;51.420;6.788;2023-07-13T06:23:08;17.10;99.90
41928;DHT22;27616;51.420;6.788;2023-07-13T06:25:34;17.20;99.90
41928;DHT22;27616;51.420;6.788;2023-07-13T06:27:59;17.10;99.90
41928;DHT22;27616;51.420;6.788;2023-07-13T06:30:26;17.20;99.90
41928;DHT22;27616;51.420;6.788;2023-07-13T06:32:52;17.30;99.90
41928;DHT22;27616;51.420;6.788;2023-07-13T06:35:18;17.40;99.90
41928;DHT22;27616;51.420;6.788;2023-07-13T06:37:44;17.40;99.90
41928;DHT22;27616;51.420;6.788;2023-07-13T06:40:10;17.40;99.90
41928;DHT22;27616;51.420;6.788;2023-07-13T06:42:35;17.50;99.90
41928;DHT22;27616;51.420;6.788;2023-07-13T06:45:02;17.50;99.90
41928;DHT22;27616;51.420;6.788;2023-07-13T06:47:27;17.70;99.90
41928;DHT22;27616;51.420;6.788;2023-07-13T06:49:53;17.80;99.90
41928;DHT22;27616;51.420;6.788;2023-07-13T06:52:18;18.00;99.90
41928;DHT22;27616;51.420;6.788;2023-07-13T06:54:44;18.10;99.90
41928;DHT22;27616;51.420;6.788;2023-07-13T06:57:10;18.20;99.90
41928;DHT22;27616;51.420;6.788;2023-07-13T06:59:35;18.20;99.90
41928;DHT22;27616;51.420;6.788;2023-07-13T07:02:01;18.10;99.90
41928;DHT22;27616;51.420;6.788;2023-07-13T07:04:26;18.10;99.90
41928;DHT22;27616;51.420;6.788;2023-07-13T07:06:52;18.00;99.90
41928;DHT22;27616;51.420;6.788;2023-07-13T07:09:18;17.90;99.90
41928;DHT22;27616;51.420;6.788;2023-07-13T07:11:43;17.80;99.90
41928;DHT22;27616;51.420;6.788;2023-07-13T07:14:09;17.90;99.90
41928;DHT22;27616;51.420;6.788;2023-07-13T07:16:35;18.00;99.90
41928;DHT22;27616;51.420;6.788;2023-07-13T07:19:00;18.00;99.90
41928;DHT22;27616;51.420;6.788;2023-07-13T07:21:26;17.90;99.90
41928;DHT22;27616;51.420;6.788;2023-07-13T07:23:52;17.90;99.90
41928;DHT22;27616;51.420;6.788;2023-07-13T07:26:18;17.90;99.90
41928;DHT22;27616;51.420;6.788;2023-07-13T07:28:44;18.00;99.90
41928;DHT22;27616;51.420;6.788;2023-07-13T07:31:10;18.10;99.90
41928;DHT22;27616;51.420;6.788;2023-07-13T07:33:36;18.30;99.90
41928;DHT22;27616;51.420;6.788;2023-07-13T07:36:02;18.20;99.90
41928;DHT22;27616;51.420;6.788;2023-07-13T07:38:28;18.20;99.90
41928;DHT22;27616;51.420;6.788;2023-07-13T07:40:54;18.20;99.90
41928;DHT22;27616;51.420;6.788;2023-07-13T07:43:19;18.10;99.90
41928;DHT22;27616;51.420;6.788;2023-07-13T07:45:45;18.00;99.90
41928;DHT22;27616;51.420;6.788;2023-07-13T07:48:11;18.10;99.90
41928;DHT22;27616;51.420;6.788;2023-07-13T07:50:38;18.10;99.90
41928;DHT22;27616;51.420;6.788;2023-07-13T07:53:05;18.20;99.90
41928;DHT22;27616;51.420;6.788;2023-07-13T07:55:33;18.20;99.90
41928;DHT22;27616;51.420;6.788;2023-07-13T07:57:59;18.30;99.90
41928;DHT22;27616;51.420;6.788;2023-07-13T08:00:25;18.30;99.90
41928;DHT22;27616;51.420;6.788;2023-07-13T08:02:51;18.30;99.90
41928;DHT22;27616;51.420;6.788;2023-07-13T08:05:16;18.20;99.90
41928;DHT22;27616;51.420;6.788;2023-07-13T08:07:42;18.30;99.90
41928;DHT22;27616;51.420;6.788;2023-07-13T08:10:08;18.30;99.90
41928;DHT22;27616;51.420;6.788;2023-07-13T08:12:38;18.30;99.90
41928;DHT22;27616;51.420;6.788;2023-07-13T08:15:05;18.50;99.90
41928;DHT22;27616;51.420;6.788;2023-07-13T08:17:31;18.50;99.90
41928;DHT22;27616;51.420;6.788;2023-07-13T08:19:57;18.50;99.90
41928;DHT22;27616;51.420;6.788;2023-07-13T08:22:22;18.50;99.90
41928;DHT22;27616;51.420;6.788;2023-07-13T08:24:48;18.70;99.90
41928;DHT22;27616;51.420;6.788;2023-07-13T08:27:20;18.90;99.90
41928;DHT22;27616;51.420;6.788;2023-07-13T08:29:48;19.00;99.90
41928;DHT22;27616;51.420;6.788;2023-07-13T08:32:14;19.10;99.90
41928;DHT22;27616;51.420;6.788;2023-07-13T08:34:40;19.30;99.90
41928;DHT22;27616;51.420;6.788;2023-07-13T08:37:06;19.40;99.90
41928;DHT22;27616;51.420;6.788;2023-07-13T08:39:32;19.40;99.90
41928;DHT22;27616;51.420;6.788;2023-07-13T08:42:11;19.40;99.90
41928;DHT22;27616;51.420;6.788;2023-07-13T08:45:07;19.40;99.90
41928;DHT22;27616;51.420;6.788;2023-07-13T08:47:46;19.50;99.90
41928;DHT22;27616;51.420;6.788;2023-07-13T08:50:15;19.50;99.90
41928;DHT22;27616;51.420;6.788;2023-07-13T08:52:43;19.50;99.90
41928;DHT22;27616;51.420;6.788;2023-07-13T08:55:18;19.50;99.90
41928;DHT22;27616;51.420;6.788;2023-07-13T08:57:50;19.40;99.90
41928;DHT22;27616;51.420;6.788;2023-07-13T09:00:18;19.40;99.90
41928;DHT22;27616;51.420;6.788;2023-07-13T09:02:56;19.40;99.90
41928;DHT22;27616;51.420;6.788;2023-07-13T09:05:22;19.50;99.90
41928;DHT22;27616;51.420;6.788;2023-07-13T09:10:52;19.70;99.90
41928;DHT22;27616;51.420;6.788;2023-07-13T09:16:14;19.60;99.90
41928;DHT22;27616;51.420;6.788;2023-07-13T09:18:50;19.60;99.90
41928;DHT22;27616;51.420;6.788;2023-07-13T09:21:22;19.70;99.90
41928;DHT22;27616;51.420;6.788;2023-07-13T09:23:53;19.90;99.90
41928;DHT22;27616;51.420;6.788;2023-07-13T09:26:21;20.00;99.90
41928;DHT22;27616;51.420;6.788;2023-07-13T09:29:11;20.10;99.90
41928;DHT22;27616;51.420;6.788;2023-07-13T09:31:45;20.20;99.90
41928;DHT22;27616;51.420;6.788;2023-07-13T09:34:13;20.20;99.90
41928;DHT22;27616;51.420;6.788;2023-07-13T09:36:39;20.30;99.90
41928;DHT22;27616;51.420;6.788;2023-07-13T09:41:53;20.60;99.90
41928;DHT22;27616;51.420;6.788;2023-07-13T09:44:54;20.80;99.90
41928;DHT22;27616;51.420;6.788;2023-07-13T09:47:28;21.00;99.90
41928;DHT22;27616;51.420;6.788;2023-07-13T09:50:03;21.20;99.90
41928;DHT22;27616;51.420;6.788;2023-07-13T09:52:41;20.90;99.90
41928;DHT22;27616;51.420;6.788;2023-07-13T09:57:51;20.60;99.90
41928;DHT22;27616;51.420;6.788;2023-07-13T10:00:23;20.40;99.90
41928;DHT22;27616;51.420;6.788;2023-07-13T10:03:03;20.30;99.90
41928;DHT22;27616;51.420;6.788;2023-07-13T10:05:41;20.30;99.90
41928;DHT22;27616;51.420;6.788;2023-07-13T10:08:25;20.50;99.90
41928;DHT22;27616;51.420;6.788;2023-07-13T10:11:23;20.70;99.90
41928;DHT22;27616;51.420;6.788;2023-07-13T10:13:54;20.90;99.90
41928;DHT22;27616;51.420;6.788;2023-07-13T10:16:23;21.10;99.90
41928;DHT22;27616;51.420;6.788;2023-07-13T10:18:53;21.20;99.90
41928;DHT22;27616;51.420;6.788;2023-07-13T10:21:23;21.30;99.90
41928;DHT22;27616;51.420;6.788;2023-07-13T10:23:54;21.20;99.90
41928;DHT22;27616;51.420;6.788;2023-07-13T10:26:21;21.00;99.90
41928;DHT22;27616;51.420;6.788;2023-07-13T10:28:51;21.10;99.90
41928;DHT22;27616;51.420;6.788;2023-07-13T10:31:19;21.20;99.90
41928;DHT22;27616;51.420;6.788;2023-07-13T10:33:45;21.40;99.90
41928;DHT22;27616;51.420;6.788;2023-07-13T10:38:43;21.70;99.90
41928;DHT22;27616;51.420;6.788;2023-07-13T10:41:21;22.00;99.90
41928;DHT22;27616;51.420;6.788;2023-07-13T10:43:51;22.00;99.90
41928;DHT22;27616;51.420;6.788;2023-07-13T10:46:19;22.10;99.90
41928;DHT22;27616;51.420;6.788;2023-07-13T10:48:49;22.00;99.90
41928;DHT22;27616;51.420;6.788;2023-07-13T10:51:17;21.80;99.00
41928;DHT22;27616;51.420;6.788;2023-07-13T10:53:46;21.90;99.40
41928;DHT22;27616;51.420;6.788;2023-07-13T10:56:26;22.10;99.20
41928;DHT22;27616;51.420;6.788;2023-07-13T11:01:51;22.00;99.40
41928;DHT22;27616;51.420;6.788;2023-07-13T11:04:19;21.90;99.10
41928;DHT22;27616;51.420;6.788;2023-07-13T11:06:48;22.00;99.10
41928;DHT22;27616;51.420;6.788;2023-07-13T11:12:06;22.10;98.60
41928;DHT22;27616;51.420;6.788;2023-07-13T11:14:43;22.30;98.20
41928;DHT22;27616;51.420;6.788;2023-07-13T11:19:53;22.40;98.00
41928;DHT22;27616;51.420;6.788;2023-07-13T11:22:25;22.40;98.10
41928;DHT22;27616;51.420;6.788;2023-07-13T11:24:56;22.50;98.00
41928;DHT22;27616;51.420;6.788;2023-07-13T11:38:36;22.40;95.50
41928;DHT22;27616;51.420;6.788;2023-07-13T11:41:16;22.30;95.80
41928;DHT22;27616;51.420;6.788;2023-07-13T11:43:42;22.40;96.40
41928;DHT22;27616;51.420;6.788;2023-07-13T11:46:18;22.50;96.50
41928;DHT22;27616;51.420;6.788;2023-07-13T11:48:46;22.70;96.20
41928;DHT22;27616;51.420;6.788;2023-07-13T11:51:28;22.90;95.30
41928;DHT22;27616;51.420;6.788;2023-07-13T11:53:57;23.10;94.00
41928;DHT22;27616;51.420;6.788;2023-07-13T11:56:25;23.30;94.30
41928;DHT22;27616;51.420;6.788;2023-07-13T11:58:54;23.50;93.20
41928;DHT22;27616;51.420;6.788;2023-07-13T12:01:25;23.40;92.90
41928;DHT22;27616;51.420;6.788;2023-07-13T12:03:52;23.50;93.20
41928;DHT22;27616;51.420;6.788;2023-07-13T12:06:30;23.50;93.30
41928;DHT22;27616;51.420;6.788;2023-07-13T12:08:58;23.40;93.30
41928;DHT22;27616;51.420;6.788;2023-07-13T12:11:25;23.40;93.40
41928;DHT22;27616;51.420;6.788;2023-07-13T12:13:50;23.30;93.40
41928;DHT22;27616;51.420;6.788;2023-07-13T12:18:46;23.20;93.40
41928;DHT22;27616;51.420;6.788;2023-07-13T12:21:16;23.20;92.90
41928;DHT22;27616;51.420;6.788;2023-07-13T12:23:44;23.20;93.30
41928;DHT22;27616;51.420;6.788;2023-07-13T12:26:11;23.10;92.90
41928;DHT22;27616;51.420;6.788;2023-07-13T12:28:54;23.10;92.80
41928;DHT22;27616;51.420;6.788;2023-07-13T12:31:26;23.00;92.70
41928;DHT22;27616;51.420;6.788;2023-07-13T12:34:01;22.90;92.20
41928;DHT22;27616;51.420;6.788;2023-07-13T12:36:29;22.80;92.30
41928;DHT22;27616;51.420;6.788;2023-07-13T12:38:56;22.70;92.30
41928;DHT22;27616;51.420;6.788;2023-07-13T12:41:22;22.70;92.50
41928;DHT22;27616;51.420;6.788;2023-07-13T12:43:49;22.60;93.00
41928;DHT22;27616;51.420;6.788;2023-07-13T12:46:20;22.50;93.30
41928;DHT22;27616;51.420;6.788;2023-07-13T12:48:53;22.40;93.70
41928;DHT22;27616;51.420;6.788;2023-07-13T12:51:25;22.30;93.70
41928;DHT22;27616;51.420;6.788;2023-07-13T12:53:59;22.30;93.60
41928;DHT22;27616;51.420;6.788;2023-07-13T12:56:32;22.30;93.30
41928;DHT22;27616;51.420;6.788;2023-07-13T12:59:04;22.20;93.30
41928;DHT22;27616;51.420;6.788;2023-07-13T13:01:34;22.10;94.10
41928;DHT22;27616;51.420;6.788;2023-07-13T13:04:02;22.20;94.60
41928;DHT22;27616;51.420;6.788;2023-07-13T13:06:32;21.90;97.60
41928;DHT22;27616;51.420;6.788;2023-07-13T13:08:59;21.70;98.60
41928;DHT22;27616;51.420;6.788;2023-07-13T13:11:26;21.60;99.30
41928;DHT22;27616;51.420;6.788;2023-07-13T13:13:53;21.50;99.70
41928;DHT22;27616;51.420;6.788;2023-07-13T13:16:43;21.60;99.60
41928;DHT22;27616;51.420;6.788;2023-07-13T13:19:23;21.60;99.80
41928;DHT22;27616;51.420;6.788;2023-07-13T13:21:49;21.90;99.90
41928;DHT22;27616;51.420;6.788;2023-07-13T13:24:22;22.10;99.90
41928;DHT22;27616;51.420;6.788;2023-07-13T13:26:50;22.40;98.30
41928;DHT22;27616;51.420;6.788;2023-07-13T13:29:20;22.70;96.30
41928;DHT22;27616;51.420;6.788;2023-07-13T13:31:47;22.90;94.90
41928;DHT22;27616;51.420;6.788;2023-07-13T13:34:15;23.00;94.10
41928;DHT22;27616;51.420;6.788;2023-07-13T13:36:41;23.10;94.20
41928;DHT22;27616;51.420;6.788;2023-07-13T13:39:25;23.20;94.40
41928;DHT22;27616;51.420;6.788;2023-07-13T13:41:53;23.40;94.20
41928;DHT22;27616;51.420;6.788;2023-07-13T13:44:20;23.50;92.80
41928;DHT22;27616;51.420;6.788;2023-07-13T13:46:48;23.50;92.50
41928;DHT22;27616;51.420;6.788;2023-07-13T13:49:15;23.40;92.80
41928;DHT22;27616;51.420;6.788;2023-07-13T13:51:43;23.20;93.50
41928;DHT22;27616;51.420;6.788;2023-07-13T13:54:13;23.20;93.40
41928;DHT22;27616;51.420;6.788;2023-07-13T13:56:42;23.10;93.70
41928;DHT22;27616;51.420;6.788;2023-07-13T13:59:08;23.10;93.30
41928;DHT22;27616;51.420;6.788;2023-07-13T14:01:35;23.30;92.40
41928;DHT22;27616;51.420;6.788;2023-07-13T14:04:00;23.40;92.30
41928;DHT22;27616;51.420;6.788;2023-07-13T14:06:26;23.50;92.80
41928;DHT22;27616;51.420;6.788;2023-07-13T14:08:52;23.60;92.90
41928;DHT22;27616;51.420;6.788;2023-07-13T14:11:21;23.60;93.20
41928;DHT22;27616;51.420;6.788;2023-07-13T14:13:53;23.40;92.80
41928;DHT22;27616;51.420;6.788;2023-07-13T14:16:21;23.10;96.10
41928;DHT22;27616;51.420;6.788;2023-07-13T14:18:49;22.70;97.10
41928;DHT22;27616;51.420;6.788;2023-07-13T14:21:19;22.40;98.30
41928;DHT22;27616;51.420;6.788;2023-07-13T14:23:46;22.10;99.30
41928;DHT22;27616;51.420;6.788;2023-07-13T14:26:21;21.90;99.90
41928;DHT22;27616;51.420;6.788;2023-07-13T14:28:49;21.80;99.90
41928;DHT22;27616;51.420;6.788;2023-07-13T14:31:16;21.70;99.90
41928;DHT22;27616;51.420;6.788;2023-07-13T14:33:43;21.50;99.90
41928;DHT22;27616;51.420;6.788;2023-07-13T14:36:30;21.50;99.90
41928;DHT22;27616;51.420;6.788;2023-07-13T14:38:58;21.60;99.90
41928;DHT22;27616;51.420;6.788;2023-07-13T14:41:24;21.60;99.90
41928;DHT22;27616;51.420;6.788;2023-07-13T14:43:50;21.70;99.90
41928;DHT22;27616;51.420;6.788;2023-07-13T14:46:31;21.70;99.90
41928;DHT22;27616;51.420;6.788;2023-07-13T14:49:04;21.60;99.90
41928;DHT22;27616;51.420;6.788;2023-07-13T14:51:31;21.60;99.90
41928;DHT22;27616;51.420;6.788;2023-07-13T14:54:00;21.50;99.90
41928;DHT22;27616;51.420;6.788;2023-07-13T14:56:26;21.50;99.90
41928;DHT22;27616;51.420;6.788;2023-07-13T14:58:52;21.50;99.90
41928;DHT22;27616;51.420;6.788;2023-07-13T15:01:18;21.50;99.90
41928;DHT22;27616;51.420;6.788;2023-07-13T15:03:46;21.40;99.90
41928;DHT22;27616;51.420;6.788;2023-07-13T15:06:13;21.40;99.90
41928;DHT22;27616;51.420;6.788;2023-07-13T15:08:39;21.40;99.90
41928;DHT22;27616;51.420;6.788;2023-07-13T15:11:09;21.30;99.90
41928;DHT22;27616;51.420;6.788;2023-07-13T15:13:37;21.20;99.90
41928;DHT22;27616;51.420;6.788;2023-07-13T15:16:04;21.20;99.90
41928;DHT22;27616;51.420;6.788;2023-07-13T15:18:30;21.20;99.90
41928;DHT22;27616;51.420;6.788;2023-07-13T15:20:56;21.20;99.90
41928;DHT22;27616;51.420;6.788;2023-07-13T15:23:25;21.10;99.90
41928;DHT22;27616;51.420;6.788;2023-07-13T15:25:51;20.80;99.90
41928;DHT22;27616;51.420;6.788;2023-07-13T15:28:17;20.40;99.90
41928;DHT22;27616;51.420;6.788;2023-07-13T15:30:46;20.10;99.90
41928;DHT22;27616;51.420;6.788;2023-07-13T15:33:28;19.90;99.90
41928;DHT22;27616;51.420;6.788;2023-07-13T15:35:56;19.80;99.90
41928;DHT22;27616;51.420;6.788;2023-07-13T15:38:27;19.80;99.90
41928;DHT22;27616;51.420;6.788;2023-07-13T15:40:54;19.80;99.90
41928;DHT22;27616;51.420;6.788;2023-07-13T15:43:21;19.80;99.90
41928;DHT22;27616;51.420;6.788;2023-07-13T15:45:47;19.80;99.90
41928;DHT22;27616;51.420;6.788;2023-07-13T15:48:18;19.80;99.90
41928;DHT22;27616;51.420;6.788;2023-07-13T15:50:52;19.70;99.90
41928;DHT22;27616;51.420;6.788;2023-07-13T15:53:22;19.70;99.90
41928;DHT22;27616;51.420;6.788;2023-07-13T15:55:49;19.80;99.90
41928;DHT22;27616;51.420;6.788;2023-07-13T15:58:15;19.90;99.90
41928;DHT22;27616;51.420;6.788;2023-07-13T16:00:42;20.00;99.90
41928;DHT22;27616;51.420;6.788;2023-07-13T16:03:08;20.10;99.90
41928;DHT22;27616;51.420;6.788;2023-07-13T16:05:34;20.00;99.90
41928;DHT22;27616;51.420;6.788;2023-07-13T16:08:01;20.10;99.90
41928;DHT22;27616;51.420;6.788;2023-07-13T16:10:32;20.10;99.90
41928;DHT22;27616;51.420;6.788;2023-07-13T16:13:00;20.20;99.90
41928;DHT22;27616;51.420;6.788;2023-07-13T16:15:26;20.20;99.90